createdAt,value
2022-08-14T00:00:45.664Z,67.28
2022-08-14T00:03:29.570Z,67.22
2022-08-14T00:06:00.644Z,67.37
2022-08-14T00:08:43.718Z,67.31
2022-08-14T00:11:14.262Z,67.29
2022-08-14T00:13:52.551Z,67.26
2022-08-14T00:16:41.198Z,67.28
2022-08-14T00:19:18.872Z,67.39
2022-08-14T00:21:51.824Z,67.32
2022-08-14T00:24:28.120Z,67.48
2022-08-14T00:27:02.047Z,67.47
2022-08-14T00:29:33.142Z,67.46
2022-08-14T00:32:52.038Z,67.55
2022-08-14T00:35:01.720Z,67.53
2022-08-14T00:37:31.992Z,67.48
2022-08-14T00:40:01.742Z,67.54
2022-08-14T00:42:55.484Z,67.58
2022-08-14T00:45:25.214Z,67.58
2022-08-14T00:47:54.373Z,67.54
2022-08-14T00:50:25.933Z,67.48
2022-08-14T00:53:00.251Z,67.52
2022-08-14T00:55:31.165Z,67.73
2022-08-14T00:58:32.469Z,67.83
2022-08-14T01:01:05.441Z,67.87
2022-08-14T01:03:38.314Z,67.80
2022-08-14T01:06:08.929Z,67.82
2022-08-14T01:08:51.135Z,67.92
2022-08-14T01:11:36.000Z,68.12
2022-08-14T01:14:25.453Z,68.37
2022-08-14T01:16:55.749Z,68.63
2022-08-14T01:19:43.905Z,68.73
2022-08-14T01:22:18.995Z,68.70
2022-08-14T01:24:48.537Z,68.79
2022-08-14T01:27:24.397Z,68.74
2022-08-14T01:30:03.265Z,68.68
2022-08-14T01:32:35.338Z,68.56
2022-08-14T01:35:18.770Z,68.48
2022-08-14T01:37:58.068Z,68.58
2022-08-14T01:40:36.658Z,68.36
2022-08-14T01:43:14.545Z,68.67
2022-08-14T01:46:05.932Z,69.22
2022-08-14T01:48:37.234Z,69.64
2022-08-14T01:51:18.856Z,69.40
2022-08-14T01:53:55.873Z,69.38
2022-08-14T01:56:40.181Z,69.60
2022-08-14T01:59:10.246Z,69.49
2022-08-14T02:01:58.088Z,69.52
2022-08-14T02:04:55.800Z,69.72
2022-08-14T02:07:34.594Z,69.95
2022-08-14T02:10:16.057Z,69.93
2022-08-14T02:12:48.902Z,69.83
2022-08-14T02:15:26.487Z,69.85
2022-08-14T02:17:55.703Z,69.57
2022-08-14T02:20:25.018Z,69.65
2022-08-14T02:22:54.855Z,69.51
2022-08-14T02:25:24.320Z,69.45
2022-08-14T02:28:25.300Z,69.53
2022-08-14T02:30:52.954Z,69.67
2022-08-14T02:33:22.777Z,69.76
2022-08-14T02:36:04.975Z,70.06
2022-08-14T02:38:44.479Z,70.25
2022-08-14T02:41:14.008Z,69.92
2022-08-14T02:43:45.980Z,69.82
2022-08-14T02:46:20.306Z,69.77
2022-08-14T02:49:02.692Z,69.78
2022-08-14T02:51:36.632Z,69.78
2022-08-14T02:54:10.094Z,69.76
2022-08-14T02:57:15.833Z,69.75
2022-08-14T02:59:33.606Z,69.81
2022-08-14T03:02:04.391Z,69.68
2022-08-14T03:04:33.697Z,69.68
2022-08-14T03:07:07.206Z,69.96
2022-08-14T03:10:24.770Z,70.06
2022-08-14T03:12:31.582Z,70.09
2022-08-14T03:15:14.411Z,70.01
2022-08-14T03:17:58.247Z,70.09
2022-08-14T03:20:36.134Z,70.21
2022-08-14T03:23:37.914Z,70.21
2022-08-14T03:26:18.185Z,70.42
2022-08-14T03:29:01.136Z,70.54
2022-08-14T03:31:30.730Z,70.50
2022-08-14T03:34:00.557Z,70.71
2022-08-14T03:37:28.388Z,70.51
2022-08-14T03:39:24.145Z,70.61
2022-08-14T03:41:59.935Z,70.59
2022-08-14T03:45:19.341Z,70.57
2022-08-14T03:47:21.394Z,70.56
2022-08-14T03:49:50.426Z,70.61
2022-08-14T03:52:38.939Z,70.72
2022-08-14T03:55:12.643Z,70.88
2022-08-14T03:57:42.702Z,70.87
2022-08-14T04:00:40.545Z,70.92
2022-08-14T04:03:10.386Z,71.16
2022-08-14T04:05:43.454Z,71.19
2022-08-14T04:08:29.829Z,71.18
2022-08-14T04:11:07.688Z,71.20
2022-08-14T04:14:23.615Z,71.16
2022-08-14T04:17:09.963Z,71.21
2022-08-14T04:19:48.073Z,71.41
2022-08-14T04:22:17.193Z,71.33
2022-08-14T04:24:51.649Z,71.40
2022-08-14T04:27:21.999Z,71.45
2022-08-14T04:29:51.708Z,71.52
2022-08-14T04:32:58.357Z,71.39
2022-08-14T04:35:12.433Z,71.49
2022-08-14T04:38:07.696Z,71.61
2022-08-14T04:41:13.082Z,71.92
2022-08-14T04:43:44.817Z,71.91
2022-08-14T04:46:56.696Z,71.84
2022-08-14T04:49:07.897Z,71.98
2022-08-14T04:51:55.469Z,71.88
2022-08-14T04:54:28.732Z,71.79
2022-08-14T04:56:58.012Z,71.72
2022-08-14T04:59:30.078Z,71.76
2022-08-14T05:01:58.595Z,71.66
2022-08-14T05:04:33.903Z,71.92
2022-08-14T05:07:09.242Z,71.87
2022-08-14T05:09:38.338Z,71.72
2022-08-14T05:13:10.567Z,71.62
2022-08-14T05:15:08.858Z,71.51
2022-08-14T05:17:44.520Z,71.21
2022-08-14T05:21:56.330Z,71.00
2022-08-14T05:23:18.875Z,70.69
2022-08-14T05:25:50.115Z,70.35
2022-08-14T05:28:25.369Z,69.97
2022-08-14T05:31:02.130Z,69.63
2022-08-14T05:33:33.326Z,69.42
2022-08-14T05:36:16.660Z,69.12
2022-08-14T05:38:47.781Z,68.94
2022-08-14T05:41:19.275Z,68.75
2022-08-14T05:43:48.760Z,68.52
2022-08-14T05:46:23.119Z,68.37
2022-08-14T05:48:54.957Z,68.10
2022-08-14T05:51:27.647Z,67.72
2022-08-14T05:54:11.479Z,67.56
2022-08-14T05:56:42.508Z,67.13
2022-08-14T05:59:12.472Z,66.74
2022-08-14T06:01:44.349Z,66.63
2022-08-14T06:04:15.745Z,66.31
2022-08-14T06:06:44.870Z,65.80
2022-08-14T06:09:13.725Z,65.47
2022-08-14T06:11:42.362Z,65.16
2022-08-14T06:14:20.567Z,65.16
2022-08-14T06:16:53.080Z,65.05
2022-08-14T06:19:23.138Z,64.66
2022-08-14T06:21:58.276Z,64.22
2022-08-14T06:24:30.588Z,64.09
2022-08-14T06:27:06.155Z,63.94
2022-08-14T06:29:39.413Z,63.49
2022-08-14T06:32:37.474Z,63.10
2022-08-14T06:35:11.363Z,62.99
2022-08-14T06:38:04.462Z,62.91
2022-08-14T06:40:40.199Z,62.94
2022-08-14T06:43:15.693Z,62.89
2022-08-14T06:45:50.217Z,62.51
2022-08-14T06:48:25.441Z,62.21
2022-08-14T06:50:57.975Z,61.86
2022-08-14T06:53:32.903Z,61.32
2022-08-14T06:56:05.067Z,61.25
2022-08-14T06:58:34.032Z,61.41
2022-08-14T07:01:27.553Z,61.39
2022-08-14T07:04:23.197Z,61.35
2022-08-14T07:06:59.125Z,60.98
2022-08-14T07:09:43.759Z,60.97
2022-08-14T07:12:54.681Z,60.84
2022-08-14T07:15:07.621Z,60.79
2022-08-14T07:17:44.942Z,60.61
2022-08-14T07:20:18.868Z,60.52
2022-08-14T07:23:08.536Z,60.33
2022-08-14T07:25:40.351Z,60.04
2022-08-14T07:28:20.228Z,60.11
2022-08-14T07:30:52.133Z,60.44
2022-08-14T07:33:29.325Z,60.59
2022-08-14T07:36:02.372Z,60.18
2022-08-14T07:38:38.020Z,60.38
2022-08-14T07:41:14.812Z,60.41
2022-08-14T07:43:55.483Z,59.85
2022-08-14T07:46:28.117Z,58.79
2022-08-14T07:48:58.498Z,59.16
2022-08-14T07:51:34.170Z,59.48
2022-08-14T07:54:11.337Z,59.87
2022-08-14T07:56:47.582Z,60.51
2022-08-14T07:59:18.825Z,60.82
2022-08-14T08:01:51.703Z,61.31
2022-08-14T08:04:26.947Z,62.17
2022-08-14T08:06:56.334Z,62.61
2022-08-14T08:09:31.805Z,62.21
2022-08-14T08:12:04.886Z,61.37
2022-08-14T08:14:56.166Z,60.41
2022-08-14T08:17:25.252Z,59.95
2022-08-14T08:19:53.629Z,58.80
2022-08-14T08:22:27.247Z,58.37
2022-08-14T08:24:59.530Z,58.00
2022-08-14T08:27:29.750Z,57.86
2022-08-14T08:30:21.594Z,58.09
2022-08-14T08:32:52.605Z,57.78
2022-08-14T08:35:25.910Z,58.21
2022-08-14T08:39:16.878Z,58.54
2022-08-14T08:41:21.451Z,58.36
2022-08-14T08:43:51.175Z,58.25
2022-08-14T08:46:24.069Z,58.52
2022-08-14T08:51:33.587Z,58.37
2022-08-14T09:04:53.451Z,57.20
2022-08-14T09:07:31.387Z,57.12
2022-08-14T09:10:00.869Z,57.06
2022-08-14T09:12:32.183Z,56.94
2022-08-14T09:15:02.534Z,56.92
2022-08-14T09:17:33.403Z,56.62
2022-08-14T09:20:04.290Z,56.90
2022-08-14T09:22:36.168Z,57.28
2022-08-14T09:25:07.627Z,56.65
2022-08-14T09:27:39.655Z,56.29
2022-08-14T09:30:30.761Z,56.09
2022-08-14T09:33:10.836Z,55.24
2022-08-14T09:35:58.037Z,54.75
2022-08-14T09:38:37.301Z,54.09
2022-08-14T09:42:20.152Z,53.65
2022-08-14T09:44:46.381Z,53.53
2022-08-14T09:47:19.243Z,52.36
2022-08-14T09:49:52.265Z,51.70
2022-08-14T09:52:33.981Z,51.10
2022-08-14T09:55:05.121Z,51.04
2022-08-14T09:57:35.831Z,51.07
2022-08-14T10:00:30.256Z,50.54
2022-08-14T10:03:05.056Z,50.61
2022-08-14T10:05:39.214Z,50.93
2022-08-14T10:08:25.499Z,49.76
2022-08-14T10:11:02.397Z,49.58
2022-08-14T10:13:43.211Z,49.44
2022-08-14T10:16:27.497Z,48.99
2022-08-14T10:33:37.270Z,46.78
2022-08-14T10:36:06.290Z,46.23
2022-08-14T10:38:44.091Z,45.98
2022-08-14T10:41:20.288Z,46.16
2022-08-14T10:44:21.631Z,45.64
2022-08-14T10:47:39.596Z,45.67
2022-08-14T10:50:00.426Z,44.66
2022-08-14T10:52:35.918Z,45.16
2022-08-14T10:55:08.567Z,44.88
2022-08-14T10:57:51.570Z,44.19
2022-08-14T11:00:30.072Z,44.41
2022-08-14T11:03:11.121Z,43.73
2022-08-14T11:05:46.225Z,43.40
2022-08-14T11:08:17.847Z,43.06
2022-08-14T11:10:55.876Z,42.89
2022-08-14T11:13:28.724Z,42.92
2022-08-14T11:16:01.323Z,42.63
2022-08-14T11:18:39.879Z,41.90
2022-08-14T11:21:10.595Z,41.67
2022-08-14T11:23:43.639Z,41.77
2022-08-14T11:26:20.932Z,42.02
2022-08-14T11:28:50.542Z,41.78
2022-08-14T11:31:24.002Z,41.54
2022-08-14T11:33:58.133Z,40.75
2022-08-14T11:36:57.163Z,40.98
2022-08-14T11:39:34.482Z,40.26
2022-08-14T11:42:56.921Z,40.35
2022-08-14T11:45:10.947Z,40.35
2022-08-14T11:48:10.597Z,40.73
2022-08-14T11:50:37.749Z,40.02
2022-08-14T11:53:33.373Z,40.21
2022-08-14T11:56:05.451Z,39.71
2022-08-14T11:58:37.088Z,39.74
2022-08-14T12:01:10.023Z,39.78
2022-08-14T12:03:57.067Z,39.80
2022-08-14T12:06:29.165Z,39.84
2022-08-14T12:09:15.168Z,39.70
2022-08-14T12:11:47.446Z,39.92
2022-08-14T12:14:34.931Z,40.00
2022-08-14T12:17:11.983Z,39.70
2022-08-14T12:19:56.867Z,39.34
2022-08-14T12:22:43.718Z,38.79
2022-08-14T12:25:15.069Z,38.45
2022-08-14T12:27:51.744Z,38.35
2022-08-14T12:30:43.874Z,38.27
2022-08-14T12:33:26.907Z,37.64
2022-08-14T12:36:08.081Z,37.72
2022-08-14T12:38:38.772Z,37.41
2022-08-14T12:41:21.733Z,36.98
2022-08-14T12:43:55.704Z,36.78
2022-08-14T12:46:27.569Z,36.10
2022-08-14T12:49:02.564Z,35.48
2022-08-14T12:51:33.802Z,35.20
2022-08-14T12:54:26.474Z,35.04
2022-08-14T12:57:19.528Z,35.25
2022-08-14T12:59:50.683Z,34.49
2022-08-14T13:02:27.169Z,34.48
2022-08-14T13:04:57.099Z,34.25
2022-08-14T13:07:32.471Z,34.56
2022-08-14T13:10:45.883Z,35.10
2022-08-14T13:15:46.458Z,34.62
2022-08-14T13:18:17.252Z,34.36
2022-08-14T13:20:49.478Z,34.35
2022-08-14T13:23:32.101Z,34.78
2022-08-14T13:26:01.375Z,34.50
2022-08-14T13:28:39.696Z,34.52
2022-08-14T13:31:15.883Z,34.47
2022-08-14T13:33:46.079Z,34.05
2022-08-14T13:36:24.013Z,33.90
2022-08-14T13:39:03.922Z,33.79
2022-08-14T13:41:36.395Z,33.55
2022-08-14T13:44:07.977Z,33.17
2022-08-14T13:46:45.930Z,33.18
2022-08-14T13:49:16.891Z,32.85
2022-08-14T13:51:53.292Z,32.71
2022-08-14T13:54:25.224Z,32.84
2022-08-14T13:56:55.378Z,32.71
2022-08-14T13:59:38.124Z,32.74
2022-08-14T14:02:08.654Z,32.71
2022-08-14T14:04:49.538Z,32.95
2022-08-14T14:07:23.551Z,33.22
2022-08-14T14:09:56.414Z,33.32
2022-08-14T14:12:36.527Z,33.32
2022-08-14T14:15:16.868Z,33.46
2022-08-14T14:17:48.023Z,33.70
2022-08-14T14:20:34.183Z,33.92
2022-08-14T14:23:12.043Z,34.06
2022-08-14T14:25:49.192Z,34.29
2022-08-14T14:28:26.402Z,34.37
2022-08-14T14:31:06.693Z,34.26
2022-08-14T14:33:51.624Z,34.28
2022-08-14T14:36:25.226Z,34.29
2022-08-14T14:38:57.682Z,34.32
2022-08-14T14:41:37.600Z,34.35
2022-08-14T14:44:11.338Z,34.27
2022-08-14T14:46:50.260Z,34.32
2022-08-14T14:49:32.037Z,34.50
2022-08-14T14:52:23.483Z,34.64
2022-08-14T14:54:58.549Z,34.77
2022-08-14T14:57:35.333Z,35.11
2022-08-14T15:00:18.428Z,34.99
2022-08-14T15:02:51.581Z,35.25
2022-08-14T15:05:23.327Z,35.54
2022-08-14T15:07:57.136Z,35.80
2022-08-14T15:10:34.232Z,35.92
2022-08-14T15:13:07.180Z,36.10
2022-08-14T15:15:37.804Z,36.28
2022-08-14T15:18:36.950Z,36.41
2022-08-14T15:20:58.153Z,36.48
2022-08-14T15:23:44.440Z,36.64
2022-08-14T15:26:24.355Z,36.72
2022-08-14T15:29:06.408Z,36.77
2022-08-14T15:31:36.620Z,36.91
2022-08-14T15:34:45.697Z,36.92
2022-08-14T15:37:02.541Z,36.98
2022-08-14T15:39:35.678Z,37.07
2022-08-14T15:42:14.737Z,37.10
2022-08-14T15:44:58.400Z,37.42
2022-08-14T15:47:32.403Z,37.83
2022-08-14T15:50:08.684Z,38.12
2022-08-14T15:52:38.518Z,38.35
2022-08-14T15:55:14.818Z,38.47
2022-08-14T15:57:51.370Z,38.63
2022-08-14T16:00:52.675Z,38.76
2022-08-14T16:03:25.327Z,38.90
2022-08-14T16:06:15.712Z,39.11
2022-08-14T16:08:58.869Z,39.37
2022-08-14T16:11:32.717Z,39.57
2022-08-14T16:14:02.009Z,39.64
2022-08-14T16:16:51.724Z,39.83
2022-08-14T16:19:26.734Z,40.00
2022-08-14T16:22:01.324Z,40.27
2022-08-14T16:24:59.790Z,40.26
2022-08-14T16:27:37.273Z,40.73
2022-08-14T16:30:25.261Z,40.95
2022-08-14T16:32:59.415Z,41.13
2022-08-14T16:35:42.430Z,41.24
2022-08-14T16:38:45.583Z,41.54
2022-08-14T16:41:17.441Z,41.53
2022-08-14T16:43:46.987Z,41.84
2022-08-14T16:46:22.485Z,41.90
2022-08-14T16:48:57.593Z,41.85
2022-08-14T16:51:29.601Z,41.77
2022-08-14T16:54:00.835Z,42.12
2022-08-14T16:56:36.234Z,42.38
2022-08-14T16:59:30.430Z,42.71
2022-08-14T17:02:13.712Z,42.84
2022-08-14T17:04:49.268Z,42.98
2022-08-14T17:07:17.833Z,43.04
